sensor_id;sensor_type;location;lat;lon;timestamp;pressure;altitude;pressure_sealevel;temperature;humidity
41078;BME280;26823;42.662;23.352;2023-11-21T00:00:21;157060.81;;;3.64;91.53
41078;BME280;26823;42.662;23.352;2023-11-21T00:02:46;157042.03;;;3.56;91.33
41078;BME280;26823;42.662;23.352;2023-11-21T00:05:13;157074.22;;;3.69;91.67
41078;BME280;26823;42.662;23.352;2023-11-21T00:07:42;157087.63;;;3.74;91.75
41078;BME280;26823;42.662;23.352;2023-11-21T00:10:08;157091.63;;;3.75;91.67
41078;BME280;26823;42.662;23.352;2023-11-21T00:12:35;157091.63;;;3.75;91.87
41078;BME280;26823;42.662;23.352;2023-11-21T00:15:00;157111.75;;;3.83;91.65
41078;BME280;26823;42.662;23.352;2023-11-21T00:17:26;157107.72;;;3.82;91.88
41078;BME280;26823;42.662;23.352;2023-11-21T00:19:52;157052.75;;;3.61;91.55
41078;BME280;26823;42.662;23.352;2023-11-21T00:22:18;157097.00;;;3.78;91.84
41078;BME280;26823;42.662;23.352;2023-11-21T00:24:43;157113.06;;;3.84;91.77
41078;BME280;26823;42.662;23.352;2023-11-21T00:27:09;157122.47;;;3.87;91.62
41078;BME280;26823;42.662;23.352;2023-11-21T00:29:34;157099.66;;;3.79;91.87
41078;BME280;26823;42.662;23.352;2023-11-21T00:32:00;157103.72;;;3.80;91.78
41078;BME280;26823;42.662;23.352;2023-11-21T00:34:25;157109.03;;;3.82;91.74
41078;BME280;26823;42.662;23.352;2023-11-21T00:36:50;157095.63;;;3.77;91.23
41078;BME280;26823;42.662;23.352;2023-11-21T00:39:16;157097.00;;;3.78;91.55
41078;BME280;26823;42.662;23.352;2023-11-21T00:41:41;157021.91;;;3.49;92.20
41078;BME280;26823;42.662;23.352;2023-11-21T00:44:07;157110.41;;;3.83;91.56
41078;BME280;26823;42.662;23.352;2023-11-21T00:46:32;157068.84;;;3.67;91.46
41078;BME280;26823;42.662;23.352;2023-11-21T00:48:58;157105.03;;;3.81;92.33
41078;BME280;26823;42.662;23.352;2023-11-21T00:51:23;157123.81;;;3.88;91.79
41078;BME280;26823;42.662;23.352;2023-11-21T00:53:55;157123.81;;;3.88;91.40
41078;BME280;26823;42.662;23.352;2023-11-21T00:56:21;157129.16;;;3.90;91.18
41078;BME280;26823;42.662;23.352;2023-11-21T00:58:46;157123.81;;;3.88;91.30
41078;BME280;26823;42.662;23.352;2023-11-21T01:01:15;157099.66;;;3.79;91.43
41078;BME280;26823;42.662;23.352;2023-11-21T01:03:41;157102.34;;;3.80;91.71
41078;BME280;26823;42.662;23.352;2023-11-21T01:06:07;157099.66;;;3.79;91.33
41078;BME280;26823;42.662;23.352;2023-11-21T01:08:34;157083.59;;;3.72;91.34
41078;BME280;26823;42.662;23.352;2023-11-21T01:11:01;157097.00;;;3.78;91.06
41078;BME280;26823;42.662;23.352;2023-11-21T01:13:26;157063.44;;;3.65;90.88
41078;BME280;26823;42.662;23.352;2023-11-21T01:15:53;157067.50;;;3.66;91.75
41078;BME280;26823;42.662;23.352;2023-11-21T01:18:18;157067.50;;;3.66;91.07
41078;BME280;26823;42.662;23.352;2023-11-21T01:20:43;157062.13;;;3.64;91.82
41078;BME280;26823;42.662;23.352;2023-11-21T01:23:11;157042.03;;;3.56;92.01
41078;BME280;26823;42.662;23.352;2023-11-21T01:25:36;157058.13;;;3.63;91.82
41078;BME280;26823;42.662;23.352;2023-11-21T01:28:01;157039.34;;;3.55;91.89
41078;BME280;26823;42.662;23.352;2023-11-21T01:30:27;157025.94;;;3.50;91.70
41078;BME280;26823;42.662;23.352;2023-11-21T01:32:52;157017.91;;;3.47;91.46
41078;BME280;26823;42.662;23.352;2023-11-21T01:35:17;156983.03;;;3.34;91.47
41078;BME280;26823;42.662;23.352;2023-11-21T01:37:43;156980.34;;;3.33;91.74
41078;BME280;26823;42.662;23.352;2023-11-21T01:40:09;156952.22;;;3.22;91.89
41078;BME280;26823;42.662;23.352;2023-11-21T01:42:35;156966.94;;;3.28;92.19
41078;BME280;26823;42.662;23.352;2023-11-21T01:45:01;156960.25;;;3.25;92.01
41078;BME280;26823;42.662;23.352;2023-11-21T01:47:28;156950.84;;;3.21;92.45
41078;BME280;26823;42.662;23.352;2023-11-21T01:49:55;156941.47;;;3.18;92.69
41078;BME280;26823;42.662;23.352;2023-11-21T01:52:20;156940.16;;;3.17;91.76
41078;BME280;26823;42.662;23.352;2023-11-21T01:54:46;156945.53;;;3.19;92.11
41078;BME280;26823;42.662;23.352;2023-11-21T01:57:12;156945.53;;;3.19;92.59
41078;BME280;26823;42.662;23.352;2023-11-21T01:59:38;156949.53;;;3.21;92.46
41078;BME280;26823;42.662;23.352;2023-11-21T02:02:06;156953.53;;;3.22;92.50
41078;BME280;26823;42.662;23.352;2023-11-21T02:04:36;156948.16;;;3.20;92.61
41078;BME280;26823;42.662;23.352;2023-11-21T02:07:02;156936.13;;;3.16;93.17
41078;BME280;26823;42.662;23.352;2023-11-21T02:09:30;156940.16;;;3.17;92.65
41078;BME280;26823;42.662;23.352;2023-11-21T02:11:56;156925.38;;;3.12;92.52
41078;BME280;26823;42.662;23.352;2023-11-21T02:14:24;156924.06;;;3.11;92.61
41078;BME280;26823;42.662;23.352;2023-11-21T02:16:50;156917.34;;;3.08;92.30
41078;BME280;26823;42.662;23.352;2023-11-21T02:19:21;156889.19;;;2.98;92.71
41078;BME280;26823;42.662;23.352;2023-11-21T02:21:56;156890.56;;;2.98;92.79
41078;BME280;26823;42.662;23.352;2023-11-21T02:24:23;156890.56;;;2.98;92.69
41078;BME280;26823;42.662;23.352;2023-11-21T02:26:49;156909.34;;;3.05;93.21
41078;BME280;26823;42.662;23.352;2023-11-21T02:29:21;156921.38;;;3.10;93.54
41078;BME280;26823;42.662;23.352;2023-11-21T02:31:55;156907.97;;;3.05;93.50
41078;BME280;26823;42.662;23.352;2023-11-21T02:34:22;156921.38;;;3.10;93.50
41078;BME280;26823;42.662;23.352;2023-11-21T02:36:48;156897.25;;;3.01;92.65
41078;BME280;26823;42.662;23.352;2023-11-21T02:39:17;156909.34;;;3.05;93.01
41078;BME280;26823;42.662;23.352;2023-11-21T02:41:43;156913.34;;;3.07;92.74
41078;BME280;26823;42.662;23.352;2023-11-21T02:44:09;156897.25;;;3.01;93.27
41078;BME280;26823;42.662;23.352;2023-11-21T02:46:35;156890.56;;;2.98;93.30
41078;BME280;26823;42.662;23.352;2023-11-21T02:49:04;156881.16;;;2.94;93.28
41078;BME280;26823;42.662;23.352;2023-11-21T02:51:31;156881.16;;;2.94;93.12
41078;BME280;26823;42.662;23.352;2023-11-21T02:53:57;156870.47;;;2.90;94.07
41078;BME280;26823;42.662;23.352;2023-11-21T02:56:25;156843.66;;;2.80;93.68
41078;BME280;26823;42.662;23.352;2023-11-21T02:58:55;156858.38;;;2.86;94.41
41078;BME280;26823;42.662;23.352;2023-11-21T03:01:20;156851.69;;;2.83;94.34
41078;BME280;26823;42.662;23.352;2023-11-21T03:03:46;156827.59;;;2.74;94.45
41078;BME280;26823;42.662;23.352;2023-11-21T03:06:16;156834.28;;;2.76;94.43
41078;BME280;26823;42.662;23.352;2023-11-21T03:08:42;156824.91;;;2.73;94.73
41078;BME280;26823;42.662;23.352;2023-11-21T03:11:07;156830.28;;;2.75;95.24
41078;BME280;26823;42.662;23.352;2023-11-21T03:13:33;156791.41;;;2.60;95.02
41078;BME280;26823;42.662;23.352;2023-11-21T03:15:58;156786.03;;;2.58;94.45
41078;BME280;26823;42.662;23.352;2023-11-21T03:18:24;156804.81;;;2.65;95.24
41078;BME280;26823;42.662;23.352;2023-11-21T03:20:53;156784.72;;;2.57;95.16
41078;BME280;26823;42.662;23.352;2023-11-21T03:23:18;156775.34;;;2.54;95.33
41078;BME280;26823;42.662;23.352;2023-11-21T03:25:44;156780.66;;;2.56;95.67
41078;BME280;26823;42.662;23.352;2023-11-21T03:28:09;156782.03;;;2.56;95.01
41078;BME280;26823;42.662;23.352;2023-11-21T03:30:34;156788.72;;;2.59;95.58
41078;BME280;26823;42.662;23.352;2023-11-21T03:33:00;156796.75;;;2.62;96.07
41078;BME280;26823;42.662;23.352;2023-11-21T03:35:26;156800.81;;;2.64;95.30
41078;BME280;26823;42.662;23.352;2023-11-21T03:37:51;156787.41;;;2.58;96.08
41078;BME280;26823;42.662;23.352;2023-11-21T03:40:17;156811.50;;;2.68;95.81
41078;BME280;26823;42.662;23.352;2023-11-21T03:42:42;156815.50;;;2.69;96.00
41078;BME280;26823;42.662;23.352;2023-11-21T03:45:08;156811.50;;;2.68;96.15
41078;BME280;26823;42.662;23.352;2023-11-21T03:47:34;156819.50;;;2.71;95.33
41078;BME280;26823;42.662;23.352;2023-11-21T03:49:59;156838.28;;;2.78;95.35
41078;BME280;26823;42.662;23.352;2023-11-21T03:52:24;156823.56;;;2.72;95.27
41078;BME280;26823;42.662;23.352;2023-11-21T03:54:50;156815.50;;;2.69;96.00
41078;BME280;26823;42.662;23.352;2023-11-21T03:57:16;156812.81;;;2.68;95.91
41078;BME280;26823;42.662;23.352;2023-11-21T03:59:42;156830.28;;;2.75;95.47
41078;BME280;26823;42.662;23.352;2023-11-21T04:02:08;156843.66;;;2.80;95.61
41078;BME280;26823;42.662;23.352;2023-11-21T04:04:34;156831.59;;;2.75;95.59
41078;BME280;26823;42.662;23.352;2023-11-21T04:06:59;156832.91;;;2.76;95.84
41078;BME280;26823;42.662;23.352;2023-11-21T04:09:25;156840.97;;;2.79;95.60
41078;BME280;26823;42.662;23.352;2023-11-21T04:11:53;156845.00;;;2.81;95.21
41078;BME280;26823;42.662;23.352;2023-11-21T04:14:20;156858.38;;;2.86;95.62
41078;BME280;26823;42.662;23.352;2023-11-21T04:16:45;156839.59;;;2.78;94.76
41078;BME280;26823;42.662;23.352;2023-11-21T04:19:11;156838.28;;;2.78;95.66
41078;BME280;26823;42.662;23.352;2023-11-21T04:21:37;156859.75;;;2.86;95.10
41078;BME280;26823;42.662;23.352;2023-11-21T04:24:02;156744.50;;;2.42;96.01
41078;BME280;26823;42.662;23.352;2023-11-21T04:26:28;156689.59;;;2.21;97.68
41078;BME280;26823;42.662;23.352;2023-11-21T04:28:53;156733.78;;;2.38;98.03
41078;BME280;26823;42.662;23.352;2023-11-21T04:31:18;156786.03;;;2.58;97.43
41078;BME280;26823;42.662;23.352;2023-11-21T04:33:44;156814.19;;;2.69;97.22
41078;BME280;26823;42.662;23.352;2023-11-21T04:36:10;156712.38;;;2.30;97.38
41078;BME280;26823;42.662;23.352;2023-11-21T04:38:35;156732.47;;;2.37;97.36
41078;BME280;26823;42.662;23.352;2023-11-21T04:41:01;156767.25;;;2.51;97.86
41078;BME280;26823;42.662;23.352;2023-11-21T04:43:26;156759.25;;;2.48;97.34
41078;BME280;26823;42.662;23.352;2023-11-21T04:45:52;156744.50;;;2.42;97.23
41078;BME280;26823;42.662;23.352;2023-11-21T04:48:17;156796.75;;;2.62;97.40
41078;BME280;26823;42.662;23.352;2023-11-21T04:50:43;156788.72;;;2.59;96.69
41078;BME280;26823;42.662;23.352;2023-11-21T04:53:08;156800.81;;;2.64;97.35
41078;BME280;26823;42.662;23.352;2023-11-21T04:55:33;156826.22;;;2.73;97.01
41078;BME280;26823;42.662;23.352;2023-11-21T04:57:59;156795.41;;;2.61;96.54
41078;BME280;26823;42.662;23.352;2023-11-21T05:00:24;156792.72;;;2.60;96.61
41078;BME280;26823;42.662;23.352;2023-11-21T05:02:49;156806.13;;;2.66;96.50
41078;BME280;26823;42.662;23.352;2023-11-21T05:05:15;156810.13;;;2.67;96.54
41078;BME280;26823;42.662;23.352;2023-11-21T05:07:40;156826.22;;;2.73;97.16
41078;BME280;26823;42.662;23.352;2023-11-21T05:10:07;156830.28;;;2.75;97.34
41078;BME280;26823;42.662;23.352;2023-11-21T05:12:41;156820.88;;;2.71;96.39
41078;BME280;26823;42.662;23.352;2023-11-21T05:15:07;156828.91;;;2.74;96.51
41078;BME280;26823;42.662;23.352;2023-11-21T05:17:37;156853.00;;;2.84;96.33
41078;BME280;26823;42.662;23.352;2023-11-21T05:20:03;156859.75;;;2.86;95.92
41078;BME280;26823;42.662;23.352;2023-11-21T05:22:30;156878.47;;;2.93;95.42
41078;BME280;26823;42.662;23.352;2023-11-21T05:24:55;156874.47;;;2.92;95.31
41078;BME280;26823;42.662;23.352;2023-11-21T05:27:20;156861.06;;;2.87;95.04
41078;BME280;26823;42.662;23.352;2023-11-21T05:29:46;156871.78;;;2.91;95.58
41078;BME280;26823;42.662;23.352;2023-11-21T05:32:11;156889.19;;;2.98;94.99
41078;BME280;26823;42.662;23.352;2023-11-21T05:34:37;156882.50;;;2.95;94.84
41078;BME280;26823;42.662;23.352;2023-11-21T05:37:02;156873.16;;;2.91;94.71
41078;BME280;26823;42.662;23.352;2023-11-21T05:39:27;156840.97;;;2.79;94.48
41078;BME280;26823;42.662;23.352;2023-11-21T05:41:53;156893.25;;;2.99;94.54
41078;BME280;26823;42.662;23.352;2023-11-21T05:44:19;156907.97;;;3.05;94.25
41078;BME280;26823;42.662;23.352;2023-11-21T05:46:44;156893.25;;;2.99;94.54
41078;BME280;26823;42.662;23.352;2023-11-21T05:49:10;156899.94;;;3.02;95.07
41078;BME280;26823;42.662;23.352;2023-11-21T05:51:37;156920.03;;;3.09;94.37
41078;BME280;26823;42.662;23.352;2023-11-21T05:54:03;156891.88;;;2.99;93.87
41078;BME280;26823;42.662;23.352;2023-11-21T05:56:29;156830.28;;;2.75;94.68
41078;BME280;26823;42.662;23.352;2023-11-21T05:58:54;156842.31;;;2.80;94.75
41078;BME280;26823;42.662;23.352;2023-11-21T06:01:19;156870.47;;;2.90;94.90
41078;BME280;26823;42.662;23.352;2023-11-21T06:03:45;156889.19;;;2.98;95.20
41078;BME280;26823;42.662;23.352;2023-11-21T06:06:10;156883.84;;;2.96;95.65
41078;BME280;26823;42.662;23.352;2023-11-21T06:08:36;156894.56;;;3.00;95.01
41078;BME280;26823;42.662;23.352;2023-11-21T06:11:01;156914.66;;;3.07;94.59
41078;BME280;26823;42.662;23.352;2023-11-21T06:13:27;156925.38;;;3.12;95.18
41078;BME280;26823;42.662;23.352;2023-11-21T06:15:53;156917.34;;;3.08;94.79
41078;BME280;26823;42.662;23.352;2023-11-21T06:18:18;156920.03;;;3.09;94.27
41078;BME280;26823;42.662;23.352;2023-11-21T06:20:45;156946.84;;;3.20;94.51
41078;BME280;26823;42.662;23.352;2023-11-21T06:23:11;156954.88;;;3.23;94.13
41078;BME280;26823;42.662;23.352;2023-11-21T06:25:36;156970.94;;;3.29;94.86
41078;BME280;26823;42.662;23.352;2023-11-21T06:28:02;156984.34;;;3.34;93.69
41078;BME280;26823;42.662;23.352;2023-11-21T06:30:27;156960.25;;;3.25;93.01
41078;BME280;26823;42.662;23.352;2023-11-21T06:32:54;156960.25;;;3.25;92.98
41078;BME280;26823;42.662;23.352;2023-11-21T06:35:20;156933.44;;;3.15;93.59
41078;BME280;26823;42.662;23.352;2023-11-21T06:37:46;156901.25;;;3.02;94.54
41078;BME280;26823;42.662;23.352;2023-11-21T06:40:14;156918.69;;;3.09;95.15
41078;BME280;26823;42.662;23.352;2023-11-21T06:42:40;156934.75;;;3.15;95.52
41078;BME280;26823;42.662;23.352;2023-11-21T06:45:07;156928.06;;;3.13;95.15
41078;BME280;26823;42.662;23.352;2023-11-21T06:47:32;156882.50;;;2.95;95.66
41078;BME280;26823;42.662;23.352;2023-11-21T06:49:58;156898.56;;;3.01;95.84
41078;BME280;26823;42.662;23.352;2023-11-21T06:52:24;156968.25;;;3.28;95.35
41078;BME280;26823;42.662;23.352;2023-11-21T06:54:49;156966.94;;;3.28;94.91
41078;BME280;26823;42.662;23.352;2023-11-21T06:57:15;157011.22;;;3.45;94.28
41078;BME280;26823;42.662;23.352;2023-11-21T06:59:41;157063.44;;;3.65;94.37
41078;BME280;26823;42.662;23.352;2023-11-21T07:02:07;157097.00;;;3.78;94.09
41078;BME280;26823;42.662;23.352;2023-11-21T07:04:33;157113.06;;;3.84;92.84
41078;BME280;26823;42.662;23.352;2023-11-21T07:06:58;157080.91;;;3.71;92.73
41078;BME280;26823;42.662;23.352;2023-11-21T07:09:24;157196.25;;;4.16;92.12
41078;BME280;26823;42.662;23.352;2023-11-21T07:11:51;157208.28;;;4.20;90.89
41078;BME280;26823;42.662;23.352;2023-11-21T07:14:17;157244.50;;;4.34;91.33
41078;BME280;26823;42.662;23.352;2023-11-21T07:16:44;157282.09;;;4.49;90.13
41078;BME280;26823;42.662;23.352;2023-11-21T07:19:10;157319.66;;;4.63;89.78
41078;BME280;26823;42.662;23.352;2023-11-21T07:21:38;157381.38;;;4.87;89.26
41078;BME280;26823;42.662;23.352;2023-11-21T07:24:07;157418.94;;;5.01;87.71
41078;BME280;26823;42.662;23.352;2023-11-21T07:26:34;157487.41;;;5.28;87.08
41078;BME280;26823;42.662;23.352;2023-11-21T07:29:02;157523.66;;;5.42;86.20
41078;BME280;26823;42.662;23.352;2023-11-21T07:31:28;157522.34;;;5.41;84.84
41078;BME280;26823;42.662;23.352;2023-11-21T07:33:54;157557.22;;;5.54;84.21
41078;BME280;26823;42.662;23.352;2023-11-21T07:36:22;157614.97;;;5.77;84.41
41078;BME280;26823;42.662;23.352;2023-11-21T07:38:49;157666.00;;;5.96;83.82
41078;BME280;26823;42.662;23.352;2023-11-21T07:41:15;157703.69;;;6.11;81.97
41078;BME280;26823;42.662;23.352;2023-11-21T07:43:41;157710.41;;;6.13;80.92
41078;BME280;26823;42.662;23.352;2023-11-21T07:46:07;157729.16;;;6.20;80.39
41078;BME280;26823;42.662;23.352;2023-11-21T07:48:34;157719.81;;;6.17;79.24
41078;BME280;26823;42.662;23.352;2023-11-21T07:51:00;157719.81;;;6.17;79.46
41078;BME280;26823;42.662;23.352;2023-11-21T07:53:26;157722.44;;;6.18;79.57
41078;BME280;26823;42.662;23.352;2023-11-21T07:55:54;157593.47;;;5.68;81.63
41078;BME280;26823;42.662;23.352;2023-11-21T07:58:20;157688.88;;;6.05;82.05
41078;BME280;26823;42.662;23.352;2023-11-21T08:00:45;157820.53;;;6.56;80.13
41078;BME280;26823;42.662;23.352;2023-11-21T08:03:10;157885.06;;;6.80;78.13
41078;BME280;26823;42.662;23.352;2023-11-21T08:05:36;157914.63;;;6.92;77.21
41078;BME280;26823;42.662;23.352;2023-11-21T08:08:02;157921.34;;;6.94;77.31
41078;BME280;26823;42.662;23.352;2023-11-21T08:10:27;157911.94;;;6.91;76.25
41078;BME280;26823;42.662;23.352;2023-11-21T08:12:53;157843.38;;;6.64;77.32
41078;BME280;26823;42.662;23.352;2023-11-21T08:15:19;157862.22;;;6.72;77.31
41078;BME280;26823;42.662;23.352;2023-11-21T08:17:45;157889.09;;;6.82;77.54
41078;BME280;26823;42.662;23.352;2023-11-21T08:20:11;157902.50;;;6.87;77.30
41078;BME280;26823;42.662;23.352;2023-11-21T08:22:37;157953.56;;;7.07;77.45
41078;BME280;26823;42.662;23.352;2023-11-21T08:25:02;157979.13;;;7.16;77.16
41078;BME280;26823;42.662;23.352;2023-11-21T08:27:29;157991.22;;;7.21;77.20
41078;BME280;26823;42.662;23.352;2023-11-21T08:29:55;157995.25;;;7.23;76.47
41078;BME280;26823;42.662;23.352;2023-11-21T08:32:21;157995.25;;;7.23;76.83
41078;BME280;26823;42.662;23.352;2023-11-21T08:34:47;157984.50;;;7.18;75.89
41078;BME280;26823;42.662;23.352;2023-11-21T08:37:16;157984.50;;;7.18;76.45
41078;BME280;26823;42.662;23.352;2023-11-21T08:39:41;157996.56;;;7.23;76.14
41078;BME280;26823;42.662;23.352;2023-11-21T08:42:07;158020.81;;;7.32;76.99
41078;BME280;26823;42.662;23.352;2023-11-21T08:44:33;158004.69;;;7.26;75.92
41078;BME280;26823;42.662;23.352;2023-11-21T08:46:58;158028.84;;;7.35;76.55
41078;BME280;26823;42.662;23.352;2023-11-21T08:49:24;158065.16;;;7.49;76.60
41078;BME280;26823;42.662;23.352;2023-11-21T08:51:51;158042.28;;;7.41;76.86
41078;BME280;26823;42.662;23.352;2023-11-21T08:54:16;158059.81;;;7.47;75.37
41078;BME280;26823;42.662;23.352;2023-11-21T08:56:43;158104.16;;;7.64;75.43
41078;BME280;26823;42.662;23.352;2023-11-21T08:59:08;158109.56;;;7.66;75.02
41078;BME280;26823;42.662;23.352;2023-11-21T09:01:34;158132.41;;;7.75;74.09
41078;BME280;26823;42.662;23.352;2023-11-21T09:03:59;158157.94;;;7.85;73.09
41078;BME280;26823;42.662;23.352;2023-11-21T09:06:25;158124.31;;;7.72;72.72
41078;BME280;26823;42.662;23.352;2023-11-21T09:08:50;158159.31;;;7.86;72.36
41078;BME280;26823;42.662;23.352;2023-11-21T09:11:17;158132.41;;;7.75;72.94
41078;BME280;26823;42.662;23.352;2023-11-21T09:13:42;158069.19;;;7.51;73.91
41078;BME280;26823;42.662;23.352;2023-11-21T09:16:08;158031.56;;;7.37;75.64
41078;BME280;26823;42.662;23.352;2023-11-21T09:18:33;158035.56;;;7.38;75.81
41078;BME280;26823;42.662;23.352;2023-11-21T09:20:59;157914.63;;;6.92;77.51
41078;BME280;26823;42.662;23.352;2023-11-21T09:23:24;157960.28;;;7.09;77.85
41078;BME280;26823;42.662;23.352;2023-11-21T09:25:50;158010.06;;;7.28;77.31
41078;BME280;26823;42.662;23.352;2023-11-21T09:28:17;158040.97;;;7.40;76.79
41078;BME280;26823;42.662;23.352;2023-11-21T09:30:43;158061.13;;;7.48;76.35
41078;BME280;26823;42.662;23.352;2023-11-21T09:33:09;158069.19;;;7.51;76.37
41078;BME280;26823;42.662;23.352;2023-11-21T09:35:37;158067.84;;;7.50;75.00
41078;BME280;26823;42.662;23.352;2023-11-21T09:38:03;158082.63;;;7.56;75.31
41078;BME280;26823;42.662;23.352;2023-11-21T09:40:35;158106.84;;;7.65;75.06
41078;BME280;26823;42.662;23.352;2023-11-21T09:43:06;158140.47;;;7.78;74.40
41078;BME280;26823;42.662;23.352;2023-11-21T09:45:35;158164.66;;;7.88;74.20
41078;BME280;26823;42.662;23.352;2023-11-21T09:48:01;158214.41;;;8.07;74.28
41078;BME280;26823;42.662;23.352;2023-11-21T09:50:28;158291.13;;;8.36;73.22
41078;BME280;26823;42.662;23.352;2023-11-21T09:53:20;158309.94;;;8.43;71.89
41078;BME280;26823;42.662;23.352;2023-11-21T09:55:47;158280.34;;;8.32;71.44
41078;BME280;26823;42.662;23.352;2023-11-21T09:58:14;158242.69;;;8.18;72.49
41078;BME280;26823;42.662;23.352;2023-11-21T10:00:44;158186.19;;;7.96;74.23
41078;BME280;26823;42.662;23.352;2023-11-21T10:03:10;158245.38;;;8.19;73.70
41078;BME280;26823;42.662;23.352;2023-11-21T10:05:37;158319.41;;;8.47;72.51
41078;BME280;26823;42.662;23.352;2023-11-21T10:08:10;158431.13;;;8.90;71.63
41078;BME280;26823;42.662;23.352;2023-11-21T10:10:46;158536.13;;;9.30;69.93
41078;BME280;26823;42.662;23.352;2023-11-21T10:13:14;158638.44;;;9.69;68.37
41078;BME280;26823;42.662;23.352;2023-11-21T10:15:43;158751.56;;;10.12;66.75
41078;BME280;26823;42.662;23.352;2023-11-21T10:18:14;158864.78;;;10.56;64.70
41078;BME280;26823;42.662;23.352;2023-11-21T10:20:40;158945.66;;;10.87;62.77
41078;BME280;26823;42.662;23.352;2023-11-21T10:23:06;158967.19;;;10.95;60.71
41078;BME280;26823;42.662;23.352;2023-11-21T10:25:43;158883.66;;;10.63;62.35
41078;BME280;26823;42.662;23.352;2023-11-21T10:28:09;158982.06;;;11.01;61.17
41078;BME280;26823;42.662;23.352;2023-11-21T10:30:37;158960.47;;;10.92;60.83
41078;BME280;26823;42.662;23.352;2023-11-21T10:33:04;158995.53;;;11.06;60.69
41078;BME280;26823;42.662;23.352;2023-11-21T10:38:07;159076.38;;;11.37;58.93
41078;BME280;26823;42.662;23.352;2023-11-21T10:40:38;159052.13;;;11.28;58.75
41078;BME280;26823;42.662;23.352;2023-11-21T10:43:08;159108.75;;;11.49;57.88
41078;BME280;26823;42.662;23.352;2023-11-21T10:45:38;159080.41;;;11.38;57.94
41078;BME280;26823;42.662;23.352;2023-11-21T10:48:11;159070.97;;;11.35;58.57
41078;BME280;26823;42.662;23.352;2023-11-21T10:50:38;159052.13;;;11.28;56.67
41078;BME280;26823;42.662;23.352;2023-11-21T10:53:04;159023.81;;;11.17;57.94
41078;BME280;26823;42.662;23.352;2023-11-21T10:55:32;158965.88;;;10.95;58.63
41078;BME280;26823;42.662;23.352;2023-11-21T10:57:59;158952.41;;;10.89;58.53
41078;BME280;26823;42.662;23.352;2023-11-21T11:00:27;158928.09;;;10.80;59.04
41078;BME280;26823;42.662;23.352;2023-11-21T11:02:53;158918.66;;;10.76;59.28
41078;BME280;26823;42.662;23.352;2023-11-21T11:05:24;158893.09;;;10.67;59.32
41078;BME280;26823;42.662;23.352;2023-11-21T11:07:54;158886.38;;;10.64;60.02
41078;BME280;26823;42.662;23.352;2023-11-21T11:10:25;158859.38;;;10.54;60.55
41078;BME280;26823;42.662;23.352;2023-11-21T11:12:54;158855.34;;;10.52;59.73
41078;BME280;26823;42.662;23.352;2023-11-21T11:15:21;158839.16;;;10.46;59.88
41078;BME280;26823;42.662;23.352;2023-11-21T11:17:48;158837.84;;;10.46;59.75
41078;BME280;26823;42.662;23.352;2023-11-21T11:20:15;158832.44;;;10.43;60.20
41078;BME280;26823;42.662;23.352;2023-11-21T11:25:38;158748.88;;;10.11;61.45
41078;BME280;26823;42.662;23.352;2023-11-21T11:28:04;158786.56;;;10.26;61.18
41078;BME280;26823;42.662;23.352;2023-11-21T11:33:36;158775.81;;;10.22;61.33
41078;BME280;26823;42.662;23.352;2023-11-21T11:38:59;158774.47;;;10.21;61.65
41078;BME280;26823;42.662;23.352;2023-11-21T11:41:30;158750.19;;;10.12;61.53
41078;BME280;26823;42.662;23.352;2023-11-21T11:43:58;158721.94;;;10.01;61.72
41078;BME280;26823;42.662;23.352;2023-11-21T11:46:44;158704.44;;;9.94;62.27
41078;BME280;26823;42.662;23.352;2023-11-21T11:49:23;158689.59;;;9.89;62.33
41078;BME280;26823;42.662;23.352;2023-11-21T11:54:55;158703.06;;;9.94;63.58
41078;BME280;26823;42.662;23.352;2023-11-21T11:57:23;158697.72;;;9.92;63.95
41078;BME280;26823;42.662;23.352;2023-11-21T12:00:33;158713.81;;;9.98;65.36
41078;BME280;26823;42.662;23.352;2023-11-21T12:03:03;158711.19;;;9.97;67.07
41078;BME280;26823;42.662;23.352;2023-11-21T12:05:29;158696.34;;;9.91;67.57
41078;BME280;26823;42.662;23.352;2023-11-21T12:08:00;158713.81;;;9.98;67.27
41078;BME280;26823;42.662;23.352;2023-11-21T12:10:28;158709.81;;;9.96;66.78
41078;BME280;26823;42.662;23.352;2023-11-21T12:12:58;158720.63;;;10.01;68.48
41078;BME280;26823;42.662;23.352;2023-11-21T12:15:24;158696.34;;;9.91;69.14
41078;BME280;26823;42.662;23.352;2023-11-21T12:17:51;158677.47;;;9.84;70.22
41078;BME280;26823;42.662;23.352;2023-11-21T12:20:20;158618.25;;;9.61;71.89
41078;BME280;26823;42.662;23.352;2023-11-21T12:22:47;158639.78;;;9.70;72.08
41078;BME280;26823;42.662;23.352;2023-11-21T12:25:16;158580.53;;;9.47;75.62
41078;BME280;26823;42.662;23.352;2023-11-21T12:27:49;158587.25;;;9.50;74.28
41078;BME280;26823;42.662;23.352;2023-11-21T12:30:17;158583.22;;;9.48;74.78
41078;BME280;26823;42.662;23.352;2023-11-21T12:32:44;158559.00;;;9.39;75.36
41078;BME280;26823;42.662;23.352;2023-11-21T12:35:11;158550.91;;;9.36;76.28
41078;BME280;26823;42.662;23.352;2023-11-21T12:37:41;158563.03;;;9.40;77.13
41078;BME280;26823;42.662;23.352;2023-11-21T12:40:10;158538.81;;;9.31;77.92
41078;BME280;26823;42.662;23.352;2023-11-21T12:42:41;158536.13;;;9.30;77.72
41078;BME280;26823;42.662;23.352;2023-11-21T12:47:51;158458.03;;;9.00;77.37
41078;BME280;26823;42.662;23.352;2023-11-21T12:50:22;158491.66;;;9.13;78.27
41078;BME280;26823;42.662;23.352;2023-11-21T12:52:50;158466.13;;;9.03;77.62
41078;BME280;26823;42.662;23.352;2023-11-21T12:55:17;158488.97;;;9.12;77.23
41078;BME280;26823;42.662;23.352;2023-11-21T12:57:48;158451.28;;;8.97;76.41
41078;BME280;26823;42.662;23.352;2023-11-21T13:00:15;158439.16;;;8.93;75.76
41078;BME280;26823;42.662;23.352;2023-11-21T13:02:55;158425.72;;;8.88;75.40